createdAt,value
2019-02-19T00:00:51.639Z,52.40
2019-02-19T00:02:23.445Z,52.37
2019-02-19T00:03:54.754Z,51.83
2019-02-19T00:05:26.250Z,53.07
2019-02-19T00:06:58.158Z,47.67
2019-02-19T00:08:30.046Z,48.55
2019-02-19T00:10:01.933Z,47.38
2019-02-19T00:11:34.128Z,42.25
2019-02-19T00:13:06.064Z,44.53
2019-02-19T00:14:37.960Z,40.35
2019-02-19T00:16:09.847Z,43.70
2019-02-19T00:17:42.254Z,47.95
2019-02-19T00:19:14.175Z,46.08
2019-02-19T00:20:46.065Z,47.35
2019-02-19T00:22:17.341Z,49.73
2019-02-19T00:23:49.607Z,48.75
2019-02-19T00:25:20.979Z,51.00
2019-02-19T00:26:52.295Z,58.43
2019-02-19T00:28:23.578Z,49.97
2019-02-19T00:29:55.759Z,63.28
2019-02-19T00:31:27.065Z,62.03
2019-02-19T00:32:58.384Z,51.30
2019-02-19T00:34:29.695Z,53.60
2019-02-19T00:36:01.347Z,50.90
2019-02-19T00:37:32.653Z,52.90
2019-02-19T00:39:03.965Z,54.73
2019-02-19T00:40:35.300Z,56.37
2019-02-19T00:42:07.064Z,64.40
2019-02-19T00:43:38.389Z,56.37
2019-02-19T00:45:16.444Z,47.77
2019-02-19T00:46:43.226Z,49.83
2019-02-19T00:48:14.828Z,59.43
2019-02-19T00:49:46.158Z,70.57
2019-02-19T00:51:18.029Z,59.67
2019-02-19T00:52:49.335Z,60.10
2019-02-19T00:54:20.635Z,63.57
2019-02-19T00:55:51.981Z,55.50
2019-02-19T00:57:23.479Z,61.30
2019-02-19T00:58:54.764Z,58.30
2019-02-19T01:00:26.071Z,56.87
2019-02-19T01:01:57.445Z,57.13
2019-02-19T01:03:29.158Z,57.57
2019-02-19T01:05:00.497Z,51.23
2019-02-19T01:06:32.153Z,51.20
2019-02-19T01:08:03.466Z,52.27
2019-02-19T01:09:34.770Z,47.80
2019-02-19T01:11:06.118Z,46.27
2019-02-19T01:12:37.823Z,44.00
2019-02-19T01:14:09.123Z,47.70
2019-02-19T01:15:40.425Z,48.27
2019-02-19T01:17:11.749Z,47.27
2019-02-19T01:18:43.473Z,42.43
2019-02-19T01:20:14.806Z,47.30
2019-02-19T01:21:46.475Z,49.27
2019-02-19T01:23:18.394Z,50.17
2019-02-19T01:24:49.714Z,40.97
2019-02-19T01:26:21.030Z,43.57
2019-02-19T01:27:53.499Z,42.03
2019-02-19T01:29:24.851Z,41.17
2019-02-19T01:30:56.149Z,44.30
2019-02-19T01:32:27.443Z,42.90
2019-02-19T01:33:59.270Z,44.43
2019-02-19T01:35:30.589Z,47.83
2019-02-19T01:37:02.458Z,40.07
2019-02-19T01:38:34.393Z,46.70
2019-02-19T01:40:05.697Z,48.70
2019-02-19T01:41:37.593Z,46.18
2019-02-19T01:43:09.265Z,44.70
2019-02-19T01:44:40.618Z,46.00
2019-02-19T01:46:12.533Z,45.25
2019-02-19T01:47:43.816Z,47.60
2019-02-19T01:49:15.431Z,49.13
2019-02-19T01:50:46.726Z,44.17
2019-02-19T01:52:18.068Z,48.17
2019-02-19T01:53:49.450Z,45.03
2019-02-19T01:55:21.119Z,41.33
2019-02-19T01:56:52.417Z,47.63
2019-02-19T01:58:24.300Z,41.35
2019-02-19T01:59:56.200Z,42.43
2019-02-19T02:01:28.588Z,44.63
2019-02-19T02:02:59.889Z,43.17
2019-02-19T02:04:31.192Z,41.00
2019-02-19T02:06:03.083Z,48.33
2019-02-19T02:07:35.206Z,43.48
2019-02-19T02:09:06.506Z,44.10
2019-02-19T02:10:38.409Z,45.80
2019-02-19T02:12:09.721Z,48.00
2019-02-19T02:13:41.191Z,45.97
2019-02-19T02:15:12.517Z,43.07
2019-02-19T02:16:43.846Z,47.00
2019-02-19T02:18:15.167Z,48.43
2019-02-19T02:19:46.994Z,48.07
2019-02-19T02:21:18.325Z,45.00
2019-02-19T02:22:49.971Z,47.33
2019-02-19T02:24:21.265Z,45.70
2019-02-19T02:25:52.560Z,45.93
2019-02-19T02:27:23.891Z,50.80
2019-02-19T02:28:55.567Z,44.70
2019-02-19T02:30:26.890Z,50.10
2019-02-19T02:31:58.171Z,45.93
2019-02-19T02:33:29.548Z,45.30
2019-02-19T02:35:01.106Z,47.50
2019-02-19T02:36:32.405Z,45.27
2019-02-19T02:38:04.211Z,48.53
2019-02-19T02:39:35.558Z,52.27
2019-02-19T02:41:06.923Z,59.07
2019-02-19T02:42:38.240Z,58.37
2019-02-19T02:44:10.063Z,52.23
2019-02-19T02:45:41.370Z,60.03
2019-02-19T02:47:12.699Z,56.43
2019-02-19T02:48:43.999Z,60.77
2019-02-19T02:50:15.853Z,77.43
2019-02-19T02:51:47.136Z,70.60
2019-02-19T02:53:18.754Z,75.80
2019-02-19T02:54:50.034Z,76.53
2019-02-19T02:56:21.318Z,58.40
2019-02-19T02:57:52.677Z,45.77
2019-02-19T02:59:24.614Z,52.07
2019-02-19T03:00:55.936Z,48.60
2019-02-19T03:02:27.252Z,48.77
2019-02-19T03:03:58.577Z,47.23
2019-02-19T03:05:30.377Z,56.83
2019-02-19T03:07:01.686Z,55.07
2019-02-19T03:08:33.277Z,65.57
2019-02-19T03:10:04.568Z,57.83
2019-02-19T03:11:35.874Z,66.00
2019-02-19T03:13:07.196Z,76.27
2019-02-19T03:14:38.830Z,72.80
2019-02-19T03:16:10.127Z,80.40
2019-02-19T03:17:41.432Z,72.23
2019-02-19T03:19:12.753Z,76.20
2019-02-19T03:20:44.303Z,79.23
2019-02-19T03:22:15.650Z,78.00
2019-02-19T03:23:47.201Z,76.10
2019-02-19T03:25:18.505Z,66.37
2019-02-19T03:26:49.863Z,74.80
2019-02-19T03:28:21.174Z,77.07
2019-02-19T03:29:53.190Z,76.10
2019-02-19T03:31:24.510Z,73.63
2019-02-19T03:32:55.771Z,71.43
2019-02-19T03:34:27.055Z,76.70
2019-02-19T03:35:58.739Z,75.53
2019-02-19T03:37:30.068Z,73.97
2019-02-19T03:39:01.844Z,72.93
2019-02-19T03:40:33.198Z,64.70
2019-02-19T03:42:04.509Z,64.83
2019-02-19T03:43:35.800Z,55.03
2019-02-19T03:45:07.419Z,53.20
2019-02-19T03:46:38.738Z,50.73
2019-02-19T03:48:10.070Z,55.63
2019-02-19T03:49:41.339Z,55.43
2019-02-19T03:51:12.880Z,52.70
2019-02-19T03:52:44.226Z,50.97
2019-02-19T03:54:15.651Z,51.50
2019-02-19T03:55:46.977Z,56.43
2019-02-19T03:57:18.250Z,57.87
2019-02-19T03:58:49.601Z,60.37
2019-02-19T04:00:21.440Z,64.20
2019-02-19T04:01:52.760Z,54.53
2019-02-19T04:03:24.085Z,56.67
2019-02-19T04:04:55.421Z,53.13
2019-02-19T04:06:27.020Z,55.47
2019-02-19T04:07:58.308Z,78.50
2019-02-19T04:09:29.706Z,59.37
2019-02-19T04:11:01.039Z,59.87
2019-02-19T04:12:32.345Z,57.30
2019-02-19T04:14:03.657Z,65.07
2019-02-19T04:15:35.477Z,70.97
2019-02-19T04:17:06.859Z,67.80
2019-02-19T04:18:38.135Z,69.60
2019-02-19T04:20:09.457Z,58.43
2019-02-19T04:21:41.349Z,91.83
2019-02-19T04:23:12.698Z,150.43
2019-02-19T04:24:44.043Z,245.03
2019-02-19T04:26:15.369Z,237.73
2019-02-19T04:27:46.934Z,240.30
2019-02-19T04:29:18.276Z,232.43
2019-02-19T04:30:50.158Z,222.88
2019-02-19T04:32:22.071Z,186.50
2019-02-19T04:33:53.915Z,162.17
2019-02-19T04:35:25.202Z,239.10
2019-02-19T04:36:56.530Z,273.57
2019-02-19T04:38:27.875Z,235.00
2019-02-19T04:39:59.449Z,217.33
2019-02-19T04:41:30.720Z,166.30
2019-02-19T04:43:02.035Z,159.30
2019-02-19T04:44:33.396Z,156.30
2019-02-19T04:46:04.943Z,160.17
2019-02-19T04:47:36.253Z,137.53
2019-02-19T04:49:07.550Z,143.67
2019-02-19T04:50:38.906Z,131.27
2019-02-19T04:52:10.334Z,120.73
2019-02-19T04:53:41.679Z,139.77
2019-02-19T04:55:12.994Z,127.37
2019-02-19T04:56:44.305Z,137.20
2019-02-19T04:58:15.902Z,145.53
2019-02-19T04:59:47.246Z,154.73
2019-02-19T05:01:18.575Z,149.17
2019-02-19T05:02:51.552Z,156.00
2019-02-19T05:04:23.304Z,222.97
2019-02-19T05:05:54.644Z,289.07
2019-02-19T05:07:25.997Z,265.07
2019-02-19T05:08:57.329Z,277.70
2019-02-19T05:10:29.090Z,279.47
2019-02-19T05:12:00.401Z,242.80
2019-02-19T05:13:31.740Z,235.63
2019-02-19T05:15:03.069Z,221.27
2019-02-19T05:16:40.733Z,192.40
2019-02-19T05:18:07.723Z,169.17
2019-02-19T05:19:39.093Z,143.97
2019-02-19T05:21:10.399Z,149.73
2019-02-19T05:22:42.064Z,156.80
2019-02-19T05:24:13.350Z,145.43
2019-02-19T05:25:44.670Z,148.23
2019-02-19T05:27:15.980Z,137.60
2019-02-19T05:28:47.720Z,138.67
2019-02-19T05:30:19.006Z,154.90
2019-02-19T05:31:50.353Z,172.47
2019-02-19T05:33:21.680Z,193.90
2019-02-19T05:34:53.221Z,218.23
2019-02-19T05:36:24.536Z,160.73
2019-02-19T05:37:55.883Z,174.27
2019-02-19T05:39:27.191Z,313.13
2019-02-19T05:40:58.621Z,267.53
2019-02-19T05:42:29.922Z,211.73
2019-02-19T05:44:01.244Z,184.60
2019-02-19T05:45:32.537Z,203.83
2019-02-19T05:47:04.008Z,168.47
2019-02-19T05:48:35.355Z,185.40
2019-02-19T05:50:06.732Z,192.33
2019-02-19T05:51:38.082Z,215.97
2019-02-19T05:53:09.494Z,219.07
2019-02-19T05:54:40.848Z,199.30
2019-02-19T05:56:12.375Z,197.30
2019-02-19T05:57:43.687Z,139.97
2019-02-19T05:59:15.002Z,95.43
2019-02-19T06:00:46.337Z,80.47
2019-02-19T06:02:17.949Z,94.83
2019-02-19T06:03:49.309Z,89.75
2019-02-19T06:05:20.627Z,81.20
2019-02-19T06:06:51.937Z,64.77
2019-02-19T06:08:23.650Z,66.67
2019-02-19T06:09:54.986Z,71.60
2019-02-19T06:11:26.702Z,56.70
2019-02-19T06:12:58.026Z,59.33
2019-02-19T06:14:29.327Z,62.93
2019-02-19T06:16:00.674Z,62.77
2019-02-19T06:17:33.304Z,68.10
2019-02-19T06:19:04.653Z,64.97
2019-02-19T06:20:35.940Z,71.17
2019-02-19T06:22:07.304Z,65.10
2019-02-19T06:23:39.362Z,64.60
2019-02-19T06:25:11.318Z,62.55
2019-02-19T06:26:42.859Z,70.70
2019-02-19T06:28:14.152Z,71.73
2019-02-19T06:29:46.078Z,67.80
2019-02-19T06:31:18.001Z,82.45
2019-02-19T06:32:49.695Z,67.80
2019-02-19T06:34:20.983Z,129.60
2019-02-19T06:35:52.275Z,145.57
2019-02-19T06:37:23.627Z,147.43
2019-02-19T06:38:55.086Z,134.53
2019-02-19T06:40:26.404Z,133.17
2019-02-19T06:41:57.958Z,119.03
2019-02-19T06:43:29.325Z,122.33
2019-02-19T06:45:00.675Z,127.93
2019-02-19T06:46:31.987Z,128.73
2019-02-19T06:48:03.621Z,100.13
2019-02-19T06:49:34.921Z,108.10
2019-02-19T06:51:06.255Z,104.00
2019-02-19T06:52:38.141Z,101.87
2019-02-19T06:54:09.797Z,99.77
2019-02-19T06:55:41.092Z,132.10
2019-02-19T06:57:12.904Z,103.53
2019-02-19T06:58:44.205Z,99.17
2019-02-19T07:00:15.517Z,94.70
2019-02-19T07:01:46.852Z,108.77
2019-02-19T07:03:18.470Z,117.60
2019-02-19T07:04:49.774Z,103.60
2019-02-19T07:06:21.659Z,108.42
2019-02-19T07:07:52.971Z,105.43
2019-02-19T07:09:24.661Z,122.23
2019-02-19T07:10:55.964Z,115.73
2019-02-19T07:12:27.418Z,110.33
2019-02-19T07:13:58.716Z,113.50
2019-02-19T07:15:30.067Z,121.10
2019-02-19T07:17:01.370Z,132.17
2019-02-19T07:18:32.936Z,119.20
2019-02-19T07:20:04.236Z,136.67
2019-02-19T07:21:36.176Z,141.32
2019-02-19T07:23:08.068Z,133.90
2019-02-19T07:24:40.208Z,130.87
2019-02-19T07:26:12.098Z,140.25
2019-02-19T07:27:44.434Z,147.17
2019-02-19T07:29:16.314Z,127.85
2019-02-19T07:30:47.611Z,123.23
2019-02-19T07:32:18.941Z,111.70
2019-02-19T07:33:51.232Z,117.03
2019-02-19T07:35:23.102Z,115.92
2019-02-19T07:36:55.026Z,126.85
2019-02-19T07:38:26.321Z,112.70
2019-02-19T07:39:57.930Z,125.83
2019-02-19T07:41:29.834Z,94.32
2019-02-19T07:43:01.887Z,94.10
2019-02-19T07:44:33.801Z,87.42
2019-02-19T07:46:05.776Z,116.20
2019-02-19T07:47:37.641Z,94.95
2019-02-19T07:49:09.777Z,103.12
2019-02-19T07:50:41.688Z,94.45
2019-02-19T07:52:13.573Z,100.38
2019-02-19T07:53:45.446Z,83.03
2019-02-19T07:55:17.706Z,89.28
2019-02-19T07:56:49.650Z,84.90
2019-02-19T07:58:21.826Z,90.95
2019-02-19T07:59:53.727Z,82.37
2019-02-19T08:01:25.619Z,85.42
2019-02-19T08:02:57.533Z,86.80
2019-02-19T08:04:29.858Z,88.35
2019-02-19T08:06:01.722Z,84.47
2019-02-19T08:07:33.629Z,84.37
2019-02-19T08:09:05.533Z,85.92
2019-02-19T08:10:37.773Z,99.52
2019-02-19T08:12:09.676Z,91.53
2019-02-19T08:13:50.844Z,84.70
2019-02-19T08:15:22.782Z,89.83
2019-02-19T08:16:54.729Z,92.57
2019-02-19T08:18:26.687Z,98.70
2019-02-19T08:19:58.938Z,94.30
2019-02-19T08:21:30.842Z,99.37
2019-02-19T08:23:02.783Z,92.97
2019-02-19T08:24:34.691Z,97.97
2019-02-19T08:26:07.085Z,98.42
2019-02-19T08:27:38.951Z,94.72
2019-02-19T08:29:13.680Z,88.55
2019-02-19T08:30:44.695Z,90.60
2019-02-19T08:32:16.590Z,82.10
2019-02-19T08:33:48.512Z,90.53
2019-02-19T08:35:20.815Z,94.90
2019-02-19T08:36:52.705Z,94.72
2019-02-19T08:38:24.570Z,92.80
2019-02-19T08:39:56.456Z,86.32
2019-02-19T08:41:28.754Z,83.52
2019-02-19T08:43:00.637Z,82.15
2019-02-19T08:44:32.879Z,78.67
2019-02-19T08:46:04.780Z,77.20
2019-02-19T08:47:42.728Z,64.70
2019-02-19T08:49:10.199Z,63.42
2019-02-19T08:50:42.434Z,63.28
2019-02-19T08:52:14.393Z,60.63
2019-02-19T08:53:46.268Z,72.37
2019-02-19T08:55:18.150Z,74.00
2019-02-19T08:56:50.347Z,79.20
2019-02-19T08:58:22.285Z,76.25
2019-02-19T08:59:54.484Z,74.50
2019-02-19T09:01:26.364Z,76.42
2019-02-19T09:02:58.272Z,63.08
2019-02-19T09:04:30.200Z,64.25
2019-02-19T09:06:02.504Z,65.45
2019-02-19T09:07:34.393Z,61.77
2019-02-19T09:09:06.316Z,60.78
2019-02-19T09:10:38.218Z,61.95
2019-02-19T09:12:11.562Z,61.58
2019-02-19T09:13:43.514Z,65.03
2019-02-19T09:15:15.773Z,72.27
2019-02-19T09:16:47.682Z,72.40
2019-02-19T09:18:19.618Z,68.10
2019-02-19T09:19:51.538Z,69.40
2019-02-19T09:21:24.001Z,62.65
2019-02-19T09:22:55.900Z,68.25
2019-02-19T09:24:27.824Z,70.00
2019-02-19T09:25:59.733Z,64.17
2019-02-19T09:27:32.033Z,49.83
2019-02-19T09:29:03.898Z,58.80
2019-02-19T09:30:36.055Z,54.48
2019-02-19T09:32:07.958Z,56.58
2019-02-19T09:33:39.911Z,61.98
2019-02-19T09:35:11.843Z,59.73
2019-02-19T09:36:44.079Z,59.98
2019-02-19T09:38:15.956Z,57.17
2019-02-19T09:39:47.860Z,53.78
2019-02-19T09:41:19.800Z,58.87
2019-02-19T09:42:51.982Z,65.15
2019-02-19T09:44:23.890Z,55.05
2019-02-19T09:45:56.210Z,56.60
2019-02-19T09:47:28.068Z,62.98
2019-02-19T09:48:59.989Z,58.42
2019-02-19T09:50:35.257Z,49.88
2019-02-19T09:52:07.532Z,51.73
2019-02-19T09:53:39.419Z,48.95
2019-02-19T09:55:11.327Z,36.23
2019-02-19T09:56:43.282Z,42.15
2019-02-19T09:58:15.452Z,49.15
2019-02-19T09:59:47.351Z,53.20
2019-02-19T10:01:22.271Z,55.25
2019-02-19T10:02:54.200Z,54.42
2019-02-19T10:04:26.069Z,56.65
2019-02-19T10:05:57.953Z,49.83
2019-02-19T10:07:30.169Z,53.92
2019-02-19T10:09:02.080Z,48.65
2019-02-19T10:10:33.973Z,53.20
2019-02-19T10:12:05.862Z,56.25
2019-02-19T10:13:38.071Z,63.08
2019-02-19T10:15:09.993Z,61.63
2019-02-19T10:16:42.291Z,63.42
2019-02-19T10:18:14.175Z,60.20
2019-02-19T10:19:46.046Z,67.17
2019-02-19T10:21:17.973Z,67.50
2019-02-19T10:22:50.118Z,62.30
2019-02-19T10:24:22.017Z,46.92
2019-02-19T10:25:53.964Z,39.90
2019-02-19T10:27:25.857Z,42.80
2019-02-19T10:28:58.042Z,41.75
2019-02-19T10:30:29.904Z,31.62
2019-02-19T10:32:02.183Z,38.45
2019-02-19T10:33:34.084Z,38.73
2019-02-19T10:35:05.986Z,35.88
2019-02-19T10:36:38.633Z,36.25
2019-02-19T10:38:11.101Z,38.38
2019-02-19T10:39:43.344Z,37.85
2019-02-19T10:41:15.216Z,33.58
2019-02-19T10:42:47.088Z,34.43
2019-02-19T10:44:19.241Z,37.83
2019-02-19T10:45:51.117Z,33.02
2019-02-19T10:47:23.366Z,33.18
2019-02-19T10:48:55.264Z,26.05
2019-02-19T10:50:27.240Z,19.05
2019-02-19T10:51:59.117Z,24.85
2019-02-19T10:53:31.487Z,21.82
2019-02-19T10:55:03.365Z,31.50
2019-02-19T10:56:35.342Z,23.07
2019-02-19T10:58:07.246Z,25.92
2019-02-19T10:59:39.397Z,26.85
2019-02-19T11:01:11.298Z,23.77
2019-02-19T11:02:43.820Z,25.30
2019-02-19T11:04:15.765Z,25.30
2019-02-19T11:05:47.629Z,30.55
2019-02-19T11:07:19.513Z,28.65
2019-02-19T11:08:51.758Z,24.32
2019-02-19T11:10:23.642Z,51.13
2019-02-19T11:11:55.557Z,28.52
2019-02-19T11:13:27.478Z,26.30
2019-02-19T11:14:59.695Z,22.35
2019-02-19T11:16:31.583Z,142.07
2019-02-19T11:18:03.841Z,93.25
2019-02-19T11:19:35.938Z,132.90
2019-02-19T11:21:07.879Z,165.10
2019-02-19T11:22:39.764Z,1263.92
2019-02-19T11:24:12.126Z,1999.90
2019-02-19T11:25:44.045Z,1561.33
2019-02-19T11:27:16.732Z,647.65
2019-02-19T11:28:48.894Z,160.25
2019-02-19T11:30:21.283Z,1074.10
2019-02-19T11:31:53.182Z,187.37
2019-02-19T11:33:25.409Z,55.90
2019-02-19T11:34:57.336Z,27.90
2019-02-19T11:36:29.243Z,88.10
2019-02-19T11:38:01.735Z,47.45
2019-02-19T11:39:34.042Z,243.52
2019-02-19T11:41:05.921Z,141.92
2019-02-19T11:42:37.847Z,60.17
2019-02-19T11:44:09.741Z,58.65
2019-02-19T11:45:41.982Z,44.15
2019-02-19T11:47:13.858Z,54.60
2019-02-19T11:48:46.089Z,37.85
2019-02-19T11:50:18.002Z,39.13
2019-02-19T11:51:49.897Z,61.20
2019-02-19T11:53:22.335Z,46.20
2019-02-19T11:54:54.731Z,64.05
2019-02-19T11:56:26.640Z,51.10
2019-02-19T11:57:58.534Z,43.48
2019-02-19T11:59:30.430Z,32.63
2019-02-19T12:01:02.953Z,31.90
2019-02-19T12:02:34.819Z,29.00
2019-02-19T12:04:06.980Z,24.32
2019-02-19T12:05:38.874Z,23.05
2019-02-19T12:07:10.783Z,22.85
2019-02-19T12:08:42.724Z,19.42
2019-02-19T12:10:15.003Z,24.65
2019-02-19T12:11:46.906Z,19.75
2019-02-19T12:13:18.857Z,19.50
2019-02-19T12:14:50.743Z,26.50
2019-02-19T12:16:24.951Z,21.93
2019-02-19T12:17:56.823Z,21.50
2019-02-19T12:19:28.802Z,21.75
2019-02-19T12:21:00.692Z,18.45
2019-02-19T12:22:32.634Z,15.18
2019-02-19T12:24:04.506Z,13.85
2019-02-19T12:25:36.614Z,12.33
2019-02-19T12:27:09.017Z,17.65
2019-02-19T12:28:40.957Z,18.10
2019-02-19T12:30:12.831Z,16.62
2019-02-19T12:31:45.183Z,16.93
2019-02-19T12:33:17.101Z,18.45
2019-02-19T12:34:49.273Z,21.37
2019-02-19T12:36:21.149Z,19.10
2019-02-19T12:37:53.033Z,32.17
2019-02-19T12:39:24.933Z,28.15
2019-02-19T12:40:57.190Z,28.83
2019-02-19T12:42:29.104Z,19.73
2019-02-19T12:44:01.010Z,17.30
2019-02-19T12:45:32.898Z,22.62
2019-02-19T12:47:05.103Z,20.15
2019-02-19T12:48:37.020Z,16.50
2019-02-19T12:50:08.912Z,15.13
2019-02-19T12:51:40.804Z,21.00
2019-02-19T12:53:13.035Z,34.80
2019-02-19T12:54:44.921Z,19.25
2019-02-19T12:56:16.842Z,23.75
2019-02-19T12:57:48.731Z,25.72
2019-02-19T12:59:20.947Z,22.65
2019-02-19T13:00:52.855Z,22.62
2019-02-19T13:02:24.736Z,25.60
2019-02-19T13:03:56.625Z,19.70
2019-02-19T13:05:28.814Z,23.02
2019-02-19T13:07:00.700Z,19.82
2019-02-19T13:08:32.634Z,25.68
2019-02-19T13:10:04.515Z,21.25
2019-02-19T13:11:36.709Z,20.25
2019-02-19T13:13:08.582Z,23.50
2019-02-19T13:14:40.504Z,22.95
2019-02-19T13:16:12.411Z,22.62
2019-02-19T13:17:44.636Z,20.50
2019-02-19T13:19:16.547Z,20.95
2019-02-19T13:20:48.949Z,20.08
2019-02-19T13:22:20.850Z,23.42
2019-02-19T13:23:52.778Z,24.75
2019-02-19T13:25:24.664Z,21.45
2019-02-19T13:26:56.821Z,24.92
2019-02-19T13:28:28.680Z,26.93
2019-02-19T13:30:00.614Z,29.32
2019-02-19T13:31:32.506Z,28.00
2019-02-19T13:33:04.612Z,26.75
2019-02-19T13:34:36.500Z,27.82
2019-02-19T13:36:08.609Z,24.85
2019-02-19T13:37:40.493Z,29.77
2019-02-19T13:39:12.443Z,22.77
2019-02-19T13:40:44.316Z,27.00
2019-02-19T13:42:16.550Z,23.18
2019-02-19T13:43:48.422Z,24.37
2019-02-19T13:45:20.323Z,22.00
2019-02-19T13:46:52.277Z,23.32
2019-02-19T13:48:24.465Z,21.07
2019-02-19T13:49:56.342Z,19.87
2019-02-19T13:51:28.478Z,23.60
2019-02-19T13:53:00.437Z,27.00
2019-02-19T13:54:32.318Z,31.50
2019-02-19T13:56:04.202Z,29.63
2019-02-19T13:57:36.388Z,32.35
2019-02-19T13:59:08.267Z,36.65
2019-02-19T14:00:40.135Z,26.87
2019-02-19T14:02:12.037Z,35.38
2019-02-19T14:03:44.227Z,40.63
2019-02-19T14:05:16.112Z,31.85
2019-02-19T14:06:48.239Z,40.33
2019-02-19T14:08:20.156Z,36.98
2019-02-19T14:09:52.091Z,35.50
2019-02-19T14:11:23.999Z,37.78
2019-02-19T14:12:56.159Z,27.85
2019-02-19T14:14:28.040Z,33.65
2019-02-19T14:15:59.989Z,36.35
2019-02-19T14:17:31.868Z,30.00
2019-02-19T14:19:04.193Z,26.93
2019-02-19T14:20:36.100Z,28.60
2019-02-19T14:22:08.509Z,36.55
2019-02-19T14:23:40.401Z,35.00
2019-02-19T14:25:12.354Z,24.72
2019-02-19T14:26:44.252Z,28.73
2019-02-19T14:28:16.419Z,28.85
2019-02-19T14:29:48.308Z,31.85
2019-02-19T14:31:20.217Z,24.37
2019-02-19T14:32:52.146Z,24.32
2019-02-19T14:34:24.370Z,28.57
2019-02-19T14:35:56.258Z,32.42
2019-02-19T14:37:28.475Z,30.60
2019-02-19T14:39:00.400Z,25.23
2019-02-19T14:40:32.255Z,34.50
2019-02-19T14:42:04.169Z,33.88
2019-02-19T14:43:36.307Z,31.05
2019-02-19T14:45:08.235Z,30.55
2019-02-19T14:46:40.113Z,28.27
2019-02-19T14:48:12.003Z,26.80
2019-02-19T14:49:47.294Z,31.20
2019-02-19T14:51:17.790Z,25.12
2019-02-19T14:52:49.893Z,27.37
2019-02-19T14:54:21.771Z,26.17
2019-02-19T14:55:53.696Z,27.27
2019-02-19T14:57:25.601Z,24.63
2019-02-19T14:58:57.893Z,27.48
2019-02-19T15:00:29.804Z,32.08
2019-02-19T15:02:01.712Z,32.95
2019-02-19T15:03:33.579Z,25.77
2019-02-19T15:05:05.824Z,24.30
2019-02-19T15:06:37.747Z,32.40
2019-02-19T15:08:09.619Z,25.17
2019-02-19T15:09:41.483Z,29.00
2019-02-19T15:11:13.521Z,28.40
2019-02-19T15:12:45.439Z,41.13
2019-02-19T15:14:17.314Z,27.45
2019-02-19T15:15:49.214Z,27.45
2019-02-19T15:17:21.455Z,24.98
2019-02-19T15:18:53.391Z,28.50
2019-02-19T15:20:25.298Z,29.25
2019-02-19T15:21:57.185Z,32.17
2019-02-19T15:23:29.163Z,28.15
2019-02-19T15:25:01.114Z,28.15
2019-02-19T15:26:33.041Z,30.68
2019-02-19T15:28:04.947Z,40.65
2019-02-19T15:29:36.971Z,47.75
2019-02-19T15:31:08.922Z,38.17
2019-02-19T15:32:40.811Z,44.33
2019-02-19T15:34:12.708Z,52.48
2019-02-19T15:35:44.834Z,37.83
2019-02-19T15:37:17.299Z,36.85
2019-02-19T15:38:49.192Z,34.05
2019-02-19T15:40:21.079Z,27.77
2019-02-19T15:41:53.233Z,28.07
2019-02-19T15:43:25.140Z,29.32
2019-02-19T15:44:57.073Z,31.77
2019-02-19T15:46:28.997Z,38.67
2019-02-19T15:48:01.086Z,39.45
2019-02-19T15:49:33.054Z,70.72
2019-02-19T15:51:04.938Z,54.77
2019-02-19T15:52:36.820Z,60.25
2019-02-19T15:54:08.909Z,57.50
2019-02-19T15:55:40.827Z,57.08
2019-02-19T15:57:12.698Z,53.00
2019-02-19T15:58:44.621Z,47.58
2019-02-19T16:00:16.772Z,45.78
2019-02-19T16:01:48.678Z,51.53
2019-02-19T16:03:20.583Z,39.18
2019-02-19T16:04:52.483Z,33.53
2019-02-19T16:06:24.682Z,35.92
2019-02-19T16:07:56.593Z,64.67
2019-02-19T16:09:28.517Z,47.33
2019-02-19T16:11:00.384Z,54.38
2019-02-19T16:12:32.460Z,70.37
2019-02-19T16:14:04.418Z,65.70
2019-02-19T16:15:36.293Z,113.60
2019-02-19T16:17:08.179Z,160.93
2019-02-19T16:18:40.220Z,117.33
2019-02-19T16:20:12.134Z,123.10
2019-02-19T16:21:44.011Z,125.95
2019-02-19T16:23:15.929Z,84.28
2019-02-19T16:24:47.909Z,96.22
2019-02-19T16:26:19.882Z,117.50
2019-02-19T16:27:51.788Z,102.87
2019-02-19T16:29:23.695Z,123.60
2019-02-19T16:30:55.735Z,123.28
2019-02-19T16:32:27.645Z,126.72
2019-02-19T16:33:59.554Z,156.40
2019-02-19T16:35:31.423Z,183.25
2019-02-19T16:37:03.450Z,170.50
2019-02-19T16:38:35.381Z,167.15
2019-02-19T16:40:07.815Z,141.20
2019-02-19T16:41:39.722Z,590.98
2019-02-19T16:43:11.608Z,200.45
2019-02-19T16:44:43.581Z,162.62
2019-02-19T16:46:15.743Z,144.43
2019-02-19T16:47:47.624Z,114.28
2019-02-19T16:49:19.533Z,119.10
2019-02-19T16:50:51.486Z,111.35
2019-02-19T16:52:23.592Z,101.82
2019-02-19T16:53:55.526Z,112.68
2019-02-19T16:55:27.500Z,101.60
2019-02-19T16:56:59.332Z,105.27
2019-02-19T16:58:31.415Z,92.47
2019-02-19T17:00:03.334Z,103.00
2019-02-19T17:01:35.200Z,98.90
2019-02-19T17:03:07.112Z,94.05
2019-02-19T17:04:39.249Z,77.45
2019-02-19T17:06:11.137Z,71.77
2019-02-19T17:07:43.049Z,89.32
2019-02-19T17:09:14.965Z,74.27
2019-02-19T17:10:47.698Z,73.55
2019-02-19T17:12:19.580Z,88.52
2019-02-19T17:13:58.084Z,95.75
2019-02-19T17:15:25.011Z,129.20
2019-02-19T17:16:57.196Z,122.10
2019-02-19T17:18:29.133Z,117.67
2019-02-19T17:20:01.014Z,97.02
2019-02-19T17:21:32.911Z,111.30
2019-02-19T17:23:04.957Z,124.15
2019-02-19T17:24:36.857Z,134.27
2019-02-19T17:26:08.738Z,144.55
2019-02-19T17:27:40.662Z,251.42
2019-02-19T17:29:12.709Z,212.68
2019-02-19T17:30:44.629Z,207.85
2019-02-19T17:32:16.543Z,160.88
2019-02-19T17:33:48.424Z,157.82
2019-02-19T17:35:20.536Z,175.97
2019-02-19T17:36:52.415Z,176.50
2019-02-19T17:38:24.341Z,171.68
2019-02-19T17:39:56.222Z,191.40
2019-02-19T17:41:28.705Z,189.43
2019-02-19T17:43:00.620Z,186.95
2019-02-19T17:44:32.509Z,181.90
2019-02-19T17:46:04.447Z,184.22
2019-02-19T17:47:36.711Z,182.75
2019-02-19T17:49:08.609Z,168.50
2019-02-19T17:50:40.520Z,168.78
2019-02-19T17:52:12.468Z,154.75
2019-02-19T17:53:44.746Z,171.25
2019-02-19T17:55:16.621Z,180.15
2019-02-19T17:56:49.663Z,205.25
2019-02-19T17:58:21.644Z,213.10
2019-02-19T17:59:53.561Z,173.47
2019-02-19T18:01:25.421Z,188.40
2019-02-19T18:02:57.716Z,190.45
2019-02-19T18:04:29.614Z,211.10
2019-02-19T18:06:01.491Z,155.48
2019-02-19T18:07:33.387Z,150.45
2019-02-19T18:09:05.563Z,203.30
2019-02-19T18:10:37.452Z,200.22
2019-02-19T18:12:09.394Z,196.05
2019-02-19T18:13:41.314Z,192.00
2019-02-19T18:15:13.471Z,228.77
2019-02-19T18:16:45.399Z,231.30
2019-02-19T18:18:17.723Z,243.40
2019-02-19T18:19:49.591Z,206.23
2019-02-19T18:21:21.792Z,214.32
2019-02-19T18:22:53.740Z,253.80
2019-02-19T18:24:25.650Z,247.35
2019-02-19T18:25:57.523Z,252.70
2019-02-19T18:27:29.833Z,235.75
2019-02-19T18:29:01.736Z,225.03
2019-02-19T18:30:33.679Z,230.62
2019-02-19T18:32:05.554Z,239.70
2019-02-19T18:33:37.623Z,224.27
2019-02-19T18:35:09.566Z,223.62
2019-02-19T18:36:41.495Z,217.13
2019-02-19T18:38:13.388Z,211.95
2019-02-19T18:39:45.464Z,250.95
2019-02-19T18:41:17.452Z,280.48
2019-02-19T18:42:49.367Z,288.90
2019-02-19T18:44:21.313Z,319.13
2019-02-19T18:45:53.495Z,265.25
2019-02-19T18:47:25.423Z,201.12
2019-02-19T18:48:57.326Z,279.23
2019-02-19T18:50:29.226Z,251.58
2019-02-19T18:52:01.311Z,111.25
2019-02-19T18:53:33.265Z,138.28
2019-02-19T18:55:05.168Z,102.00
2019-02-19T18:56:37.065Z,111.57
2019-02-19T18:58:09.327Z,96.53
2019-02-19T18:59:41.298Z,95.67
2019-02-19T19:01:13.198Z,84.47
2019-02-19T19:02:45.081Z,70.65
2019-02-19T19:04:17.251Z,69.12
2019-02-19T19:05:49.179Z,59.15
2019-02-19T19:07:21.100Z,68.33
2019-02-19T19:08:52.984Z,62.58
2019-02-19T19:10:24.955Z,76.05
2019-02-19T19:11:56.901Z,94.35
2019-02-19T19:13:28.208Z,91.20
2019-02-19T19:15:00.154Z,78.07
2019-02-19T19:16:32.429Z,90.10
2019-02-19T19:18:04.329Z,79.05
2019-02-19T19:19:36.234Z,83.10
2019-02-19T19:21:08.402Z,87.82
2019-02-19T19:22:40.729Z,129.72
2019-02-19T19:24:12.618Z,115.08
2019-02-19T19:25:44.546Z,173.47
2019-02-19T19:27:16.456Z,176.55
2019-02-19T19:28:48.546Z,196.70
2019-02-19T19:30:20.437Z,202.13
2019-02-19T19:31:52.380Z,215.25